Time;durP1;ratioP1;P1;durP2;ratioP2;P2;SDS_P1;SDS_P2;PMS_P1;PMS_P2;Temp;Humidity;BMP_temperature;BMP_pressure;BME280_temperature;BME280_humidity;BME280_pressure;Samples;Min_cycle;Max_cycle;Signal;HPM_P1;HPM_P2
2022/12/18 00:00:53;;;;;;;21.13;12.67;;;-6.60;99.90;;;;;;5059132;28;20186;-89
2022/12/18 00:03:21;;;;;;;22.93;13.03;;;-6.80;99.90;;;;;;5058868;28;20187;-89
2022/12/18 00:05:51;;;;;;;21.10;12.03;;;-6.90;99.90;;;;;;5058824;28;20197;-89
2022/12/18 00:08:17;;;;;;;21.73;12.10;;;-6.90;99.90;;;;;;5058493;28;20229;-90
2022/12/18 00:10:44;;;;;;;25.37;12.33;;;-6.90;99.90;;;;;;5075311;28;20190;-90
2022/12/18 00:13:16;;;;;;;22.97;12.03;;;-6.80;99.90;;;;;;5091093;28;20185;-89
2022/12/18 00:15:41;;;;;;;23.30;12.00;;;-6.80;99.90;;;;;;5095674;28;20212;-90
2022/12/18 00:18:07;;;;;;;19.83;11.07;;;-6.70;99.90;;;;;;5095407;28;20262;-89
2022/12/18 00:20:38;;;;;;;22.73;12.60;;;-6.90;99.90;;;;;;5078732;28;20181;-88
2022/12/18 00:23:04;;;;;;;21.93;11.90;;;-7.00;99.90;;;;;;5077745;28;20594;-89
2022/12/18 00:25:33;;;;;;;22.80;13.10;;;-7.20;99.90;;;;;;5094739;28;20182;-89
2022/12/18 00:27:59;;;;;;;22.53;13.10;;;-7.20;99.90;;;;;;5094895;28;20176;-89
2022/12/18 00:30:25;;;;;;;25.30;12.07;;;-7.30;99.90;;;;;;5095024;28;20185;-88
2022/12/18 00:32:51;;;;;;;22.33;12.10;;;-7.20;99.90;;;;;;5095201;28;20594;-88
2022/12/18 00:35:21;;;;;;;22.83;12.20;;;-7.20;99.90;;;;;;5078311;28;20205;-89
2022/12/18 00:37:47;;;;;;;22.10;12.03;;;-7.10;99.90;;;;;;5095203;28;20603;-89
2022/12/18 00:40:13;;;;;;;20.37;11.37;;;-7.10;99.90;;;;;;5094926;28;20234;-88
2022/12/18 00:42:57;;;;;;;21.87;12.80;;;-7.10;99.90;;;;;;5083903;28;20201;-89
2022/12/18 00:45:28;;;;;;;22.13;12.13;;;-7.20;99.90;;;;;;5516607;22;20275;-89
2022/12/18 00:47:55;;;;;;;21.80;12.40;;;-7.10;99.90;;;;;;5094750;28;20272;-88
2022/12/18 00:50:23;;;;;;;25.20;12.87;;;-7.20;99.90;;;;;;5102574;28;20187;-91
2022/12/18 00:52:48;;;;;;;19.27;11.07;;;-7.20;99.90;;;;;;5094931;28;20182;-92
2022/12/18 00:55:15;;;;;;;19.40;11.43;;;-7.10;99.90;;;;;;5094876;28;20943;-91
2022/12/18 00:57:43;;;;;;;21.17;11.97;;;-7.10;99.90;;;;;;5094991;28;20184;-91
2022/12/18 01:00:14;;;;;;;21.87;12.27;;;-7.20;99.90;;;;;;5078753;28;20193;-92
2022/12/18 01:02:40;;;;;;;21.37;11.47;;;-7.10;99.90;;;;;;5094686;28;20172;-92
2022/12/18 01:05:07;;;;;;;23.77;12.43;;;-7.20;99.90;;;;;;5094543;28;20168;-91
2022/12/18 01:07:35;;;;;;;23.97;12.80;;;-7.10;99.90;;;;;;5094843;28;20221;-90
2022/12/18 01:10:00;;;;;;;23.87;12.57;;;-7.20;99.90;;;;;;5096178;28;20165;-91
2022/12/18 01:12:26;;;;;;;19.70;11.60;;;-7.20;99.90;;;;;;5094917;28;20178;-89
2022/12/18 01:14:52;;;;;;;19.63;11.20;;;-7.30;99.90;;;;;;5094609;28;20240;-91
2022/12/18 01:17:17;;;;;;;22.07;11.87;;;-7.30;99.90;;;;;;5094760;28;20174;-93
2022/12/18 01:19:43;;;;;;;20.43;12.10;;;-7.40;99.90;;;;;;5094863;28;20173;-91
2022/12/18 01:22:09;;;;;;;19.77;10.70;;;-7.40;99.90;;;;;;5094594;28;20176;-92
2022/12/18 01:24:35;;;;;;;23.00;12.20;;;-7.50;99.90;;;;;;5094851;28;20230;-90
2022/12/18 01:27:00;;;;;;;21.30;11.53;;;-7.50;99.90;;;;;;5095548;28;20201;-91
2022/12/18 01:29:26;;;;;;;22.23;11.37;;;-7.50;99.90;;;;;;5093867;28;20176;-91
2022/12/18 01:31:55;;;;;;;26.07;10.50;;;-7.60;99.90;;;;;;5094146;28;20238;-90
2022/12/18 01:34:22;;;;;;;22.00;11.80;;;-7.50;99.90;;;;;;5094067;28;20603;-90
2022/12/18 01:36:51;;;;;;;26.53;12.50;;;-7.60;99.90;;;;;;5094131;28;20176;-89
2022/12/18 01:39:18;;;;;;;20.03;11.93;;;-7.60;99.90;;;;;;5093991;28;20615;-90
2022/12/18 01:42:03;;;;;;;21.40;11.13;;;-7.60;99.90;;;;;;5094376;28;20176;-90
2022/12/18 01:45:06;;;;;;;21.90;11.10;;;-7.60;99.90;;;;;;5094121;28;20190;-89
2022/12/18 01:47:45;;;;;;;25.57;11.20;;;-7.60;99.90;;;;;;5094226;28;20218;-90
2022/12/18 01:50:33;;;;;;;19.83;10.27;;;-7.60;99.90;;;;;;5077713;28;20173;-90
2022/12/18 01:53:11;;;;;;;17.97;10.30;;;-7.70;99.90;;;;;;5094228;28;20619;-89
2022/12/18 01:55:49;;;;;;;23.10;11.77;;;-7.60;99.90;;;;;;5093727;28;20606;-90
2022/12/18 01:58:16;;;;;;;17.93;9.30;;;-7.60;99.90;;;;;;5079050;28;20171;-89
2022/12/18 02:00:42;;;;;;;16.17;9.53;;;-7.60;99.90;;;;;;5094168;28;20178;-91
2022/12/18 02:03:08;;;;;;;20.30;11.67;;;-7.60;99.90;;;;;;5093811;28;20186;-89
2022/12/18 02:05:52;;;;;;;18.83;10.47;;;-7.60;99.90;;;;;;5093727;28;20182;-89
2022/12/18 02:08:41;;;;;;;18.63;10.20;;;-7.60;99.90;;;;;;5093844;28;20226;-89
2022/12/18 02:11:22;;;;;;;15.90;9.20;;;-7.60;99.90;;;;;;5093946;28;20603;-89
2022/12/18 02:14:18;;;;;;;21.70;11.13;;;-7.70;99.90;;;;;;5095109;28;20164;-90
2022/12/18 02:16:50;;;;;;;17.63;9.80;;;-7.70;99.90;;;;;;5093973;28;20172;-90
2022/12/18 02:19:35;;;;;;;18.97;11.07;;;-7.70;99.90;;;;;;5093675;28;20184;-90
2022/12/18 02:22:40;;;;;;;20.90;10.90;;;-7.80;99.90;;;;;;5095077;28;20161;-90
2022/12/18 02:25:30;;;;;;;24.00;10.70;;;-7.90;99.90;;;;;;5077998;28;20188;-90
2022/12/18 02:28:00;;;;;;;17.37;10.27;;;-7.90;99.90;;;;;;5093320;28;20188;-90
2022/12/18 02:30:29;;;;;;;21.40;9.77;;;-8.10;99.90;;;;;;5093963;28;20164;-90
2022/12/18 02:32:57;;;;;;;22.87;10.80;;;-8.10;99.90;;;;;;5093528;28;20644;-88
2022/12/18 02:35:30;;;;;;;18.97;11.10;;;-8.20;99.90;;;;;;5093553;28;20180;-89
2022/12/18 02:37:58;;;;;;;20.43;11.20;;;-8.10;99.90;;;;;;5093780;28;20176;-89
2022/12/18 02:40:27;;;;;;;23.23;11.53;;;-8.20;99.90;;;;;;5093774;28;20181;-89
2022/12/18 02:42:53;;;;;;;19.87;10.83;;;-8.20;99.90;;;;;;5093978;28;20244;-89
2022/12/18 02:45:19;;;;;;;17.13;9.97;;;-8.20;99.90;;;;;;5094546;28;20731;-89
2022/12/18 02:47:49;;;;;;;17.80;10.53;;;-8.20;99.90;;;;;;5093551;28;20195;-89
2022/12/18 02:50:25;;;;;;;21.13;10.17;;;-8.20;99.90;;;;;;5093403;28;20179;-89
2022/12/18 02:53:20;;;;;;;20.17;10.80;;;-8.20;99.90;;;;;;5094754;28;20166;-90
2022/12/18 02:56:11;;;;;;;18.90;10.20;;;-8.30;99.90;;;;;;5094745;28;20165;-90
2022/12/18 02:59:04;;;;;;;19.90;10.57;;;-8.20;99.90;;;;;;5093649;28;20688;-89
2022/12/18 03:02:00;;;;;;;19.00;10.60;;;-8.20;99.90;;;;;;5093480;28;20590;-90
2022/12/18 03:04:33;;;;;;;18.90;9.83;;;-8.10;99.90;;;;;;5093229;28;20170;-90
2022/12/18 03:07:05;;;;;;;17.50;10.07;;;-8.10;99.90;;;;;;5093124;28;20219;-90
2022/12/18 03:09:43;;;;;;;17.03;8.97;;;-8.20;99.90;;;;;;5096194;28;20504;-89
2022/12/18 03:12:23;;;;;;;18.43;9.77;;;-8.30;99.90;;;;;;5096951;28;20606;-89
2022/12/18 03:14:59;;;;;;;18.67;9.17;;;-8.30;99.90;;;;;;5096744;28;20268;-89
2022/12/18 03:17:28;;;;;;;20.87;10.10;;;-8.40;99.90;;;;;;5096896;28;20180;-88
2022/12/18 03:19:57;;;;;;;15.47;9.37;;;-8.40;99.90;;;;;;5096805;28;20176;-89
2022/12/18 03:22:24;;;;;;;15.83;9.87;;;-8.50;99.90;;;;;;5096988;28;20179;-89
2022/12/18 03:24:51;;;;;;;16.40;9.77;;;-8.60;99.90;;;;;;5096492;28;20186;-90
2022/12/18 03:27:22;;;;;;;18.53;10.50;;;-8.50;99.90;;;;;;5096731;28;20269;-90
2022/12/18 03:30:07;;;;;;;17.43;10.47;;;-8.50;99.90;;;;;;5096603;28;20484;-90
2022/12/18 03:32:39;;;;;;;19.13;10.40;;;-8.50;99.90;;;;;;5096541;28;20185;-90
2022/12/18 03:35:08;;;;;;;20.80;10.10;;;-8.40;99.90;;;;;;5096231;28;20692;-89
2022/12/18 03:37:38;;;;;;;17.80;10.33;;;-8.40;99.90;;;;;;5096611;28;20257;-89
2022/12/18 03:40:05;;;;;;;18.73;10.30;;;-8.40;99.90;;;;;;5096283;28;20230;-89
2022/12/18 03:42:52;;;;;;;23.20;10.87;;;-8.30;99.90;;;;;;5096314;28;20178;-90
2022/12/18 03:45:34;;;;;;;18.37;10.43;;;-8.50;99.90;;;;;;5096134;28;20311;-89
2022/12/18 03:48:04;;;;;;;17.13;9.53;;;-8.40;99.90;;;;;;5096502;28;20249;-91
2022/12/18 03:50:42;;;;;;;20.43;10.80;;;-8.50;99.90;;;;;;5109805;28;20184;-90
2022/12/18 03:53:36;;;;;;;19.20;9.80;;;-8.50;99.90;;;;;;5116508;28;20469;-90
2022/12/18 03:56:03;;;;;;;20.07;10.37;;;-8.50;99.90;;;;;;5116396;28;20176;-89
2022/12/18 03:58:33;;;;;;;20.87;11.13;;;-8.50;99.90;;;;;;5117874;27;20653;-90
2022/12/18 04:01:02;;;;;;;19.57;11.23;;;-8.40;99.90;;;;;;5116589;28;20179;-90
2022/12/18 04:03:31;;;;;;;19.43;10.17;;;-8.50;99.90;;;;;;5116097;28;20177;-89
2022/12/18 04:05:59;;;;;;;21.30;9.80;;;-8.50;99.90;;;;;;5115976;28;20604;-90
2022/12/18 04:08:26;;;;;;;18.73;9.77;;;-8.50;99.90;;;;;;5116349;28;20210;-90
2022/12/18 04:10:52;;;;;;;17.80;10.07;;;-8.60;99.90;;;;;;5115863;28;20174;-90
2022/12/18 04:13:28;;;;;;;19.27;10.27;;;-8.70;99.90;;;;;;5099497;28;20190;-89
2022/12/18 04:15:54;;;;;;;21.03;9.93;;;-8.60;99.90;;;;;;5095552;28;20187;-89
2022/12/18 04:18:20;;;;;;;19.80;10.63;;;-8.60;99.90;;;;;;5095668;28;20181;-89
2022/12/18 04:20:45;;;;;;;16.13;9.83;;;-8.50;99.90;;;;;;5095399;28;20172;-89
2022/12/18 04:23:11;;;;;;;15.60;9.27;;;-8.60;99.90;;;;;;5095687;28;20180;-89
2022/12/18 04:25:37;;;;;;;19.13;10.67;;;-8.60;99.90;;;;;;5095451;28;20218;-89
2022/12/18 04:28:09;;;;;;;17.97;9.80;;;-8.60;99.90;;;;;;5095497;28;20184;-89
2022/12/18 04:30:35;;;;;;;19.40;10.53;;;-8.70;99.90;;;;;;5095594;28;20175;-88
2022/12/18 04:33:00;;;;;;;19.03;10.17;;;-8.80;99.90;;;;;;5095352;28;20185;-89
2022/12/18 04:35:26;;;;;;;20.80;10.97;;;-8.80;99.90;;;;;;5095168;28;20206;-89
2022/12/18 04:37:53;;;;;;;17.40;9.60;;;-9.00;99.90;;;;;;5095328;28;20178;-89
2022/12/18 04:40:19;;;;;;;21.70;11.20;;;-9.00;99.90;;;;;;5095359;28;20183;-89
2022/12/18 04:42:45;;;;;;;21.80;11.00;;;-8.90;99.90;;;;;;5105825;28;20532;-88
2022/12/18 04:45:11;;;;;;;20.83;11.50;;;-8.90;99.90;;;;;;5115292;28;20229;-89
2022/12/18 04:47:36;;;;;;;24.03;11.20;;;-8.90;99.90;;;;;;5115292;28;20213;-89
2022/12/18 04:50:02;;;;;;;16.93;10.33;;;-9.00;99.90;;;;;;5114602;28;20209;-90
2022/12/18 04:52:28;;;;;;;27.70;12.43;;;-9.30;99.90;;;;;;5094482;28;20235;-88
2022/12/18 04:54:54;;;;;;;26.80;13.23;;;-9.30;99.90;;;;;;5094888;28;20227;-89
2022/12/18 04:57:19;;;;;;;22.67;12.37;;;-9.20;99.90;;;;;;5095195;28;20205;-89
2022/12/18 04:59:46;;;;;;;24.50;11.97;;;-9.30;99.90;;;;;;5095146;28;20270;-89
2022/12/18 05:02:12;;;;;;;21.23;11.97;;;-9.30;99.90;;;;;;5095047;28;20202;-89
2022/12/18 05:04:38;;;;;;;24.77;13.00;;;-9.40;99.90;;;;;;5094568;28;20223;-89
2022/12/18 05:07:04;;;;;;;22.57;12.73;;;-9.30;99.90;;;;;;5094763;28;20242;-90
2022/12/18 05:09:30;;;;;;;21.83;10.80;;;-9.30;99.90;;;;;;5094773;28;20559;-89
2022/12/18 05:11:55;;;;;;;20.53;11.97;;;-9.30;99.90;;;;;;5098450;28;20191;-89
2022/12/18 05:14:21;;;;;;;20.30;10.70;;;-9.30;99.90;;;;;;5114864;28;20949;-89
2022/12/18 05:16:47;;;;;;;20.47;10.93;;;-9.30;99.90;;;;;;5115005;28;20261;-89
2022/12/18 05:19:15;;;;;;;23.43;12.50;;;-9.40;99.90;;;;;;5114802;28;20178;-88
2022/12/18 05:21:40;;;;;;;20.53;11.43;;;-9.50;99.90;;;;;;5114525;28;20191;-89
2022/12/18 05:24:06;;;;;;;19.17;10.63;;;-9.50;99.90;;;;;;5114813;28;20210;-90
2022/12/18 05:26:32;;;;;;;18.73;11.83;;;-9.40;99.90;;;;;;5114596;28;20208;-89
2022/12/18 05:28:58;;;;;;;20.80;11.30;;;-9.40;99.90;;;;;;5114758;28;20187;-89
2022/12/18 05:31:24;;;;;;;19.37;10.50;;;-9.40;99.90;;;;;;5113989;28;20169;-89
2022/12/18 05:33:49;;;;;;;23.57;12.50;;;-9.50;99.90;;;;;;5114065;28;20188;-90
2022/12/18 05:36:15;;;;;;;25.07;12.33;;;-9.40;99.90;;;;;;5114829;28;20661;-89
2022/12/18 05:38:42;;;;;;;22.73;12.30;;;-9.40;99.90;;;;;;5114828;28;20275;-90
2022/12/18 05:41:09;;;;;;;24.17;11.80;;;-9.40;99.90;;;;;;5115016;28;20177;-89
2022/12/18 05:43:36;;;;;;;22.73;11.73;;;-9.40;99.90;;;;;;5114754;28;20189;-90
2022/12/18 05:46:07;;;;;;;22.27;11.90;;;-9.50;99.90;;;;;;5114119;28;20233;-89
2022/12/18 05:48:35;;;;;;;21.07;11.63;;;-9.60;99.90;;;;;;5114628;28;20273;-89
2022/12/18 05:51:09;;;;;;;25.50;13.03;;;-9.70;99.90;;;;;;5114274;28;20189;-90
2022/12/18 05:53:36;;;;;;;20.07;11.23;;;-9.70;99.90;;;;;;5115777;28;20177;-90
2022/12/18 05:56:03;;;;;;;24.57;11.27;;;-9.70;99.90;;;;;;5114253;28;20180;-89
2022/12/18 05:58:30;;;;;;;24.83;12.20;;;-9.70;99.90;;;;;;5114463;28;20181;-89
2022/12/18 06:00:57;;;;;;;21.80;11.50;;;-9.60;99.90;;;;;;5114619;28;20207;-90
2022/12/18 06:03:22;;;;;;;20.97;11.73;;;-9.70;99.90;;;;;;5115437;28;20229;-90
2022/12/18 06:05:48;;;;;;;22.30;11.33;;;-9.60;99.90;;;;;;5114256;28;20220;-89
2022/12/18 06:08:14;;;;;;;20.33;10.80;;;-9.60;99.90;;;;;;5114234;28;20177;-89
2022/12/18 06:10:52;;;;;;;19.50;11.23;;;-9.60;99.90;;;;;;5114284;28;20613;-90
2022/12/18 06:13:18;;;;;;;18.67;10.90;;;-9.60;99.90;;;;;;5102154;28;20206;-89
2022/12/18 06:15:44;;;;;;;19.03;10.33;;;-9.60;99.90;;;;;;5077050;28;20621;-89
2022/12/18 06:18:10;;;;;;;24.73;11.40;;;-9.70;99.90;;;;;;5076743;28;20209;-89
2022/12/18 06:20:39;;;;;;;24.80;12.50;;;-9.80;99.90;;;;;;5076970;28;20174;-89
2022/12/18 06:23:06;;;;;;;20.63;11.67;;;-9.80;99.90;;;;;;5073375;28;20285;-89
2022/12/18 06:25:32;;;;;;;21.40;11.60;;;-9.70;99.90;;;;;;5079702;28;20171;-89
2022/12/18 06:27:58;;;;;;;27.90;10.40;;;-9.70;99.90;;;;;;5088014;28;20216;-89
2022/12/18 06:30:24;;;;;;;20.30;9.83;;;-9.60;99.90;;;;;;5094904;28;20230;-89
2022/12/18 06:32:50;;;;;;;21.63;11.63;;;-9.60;99.90;;;;;;5093770;28;20181;-89
2022/12/18 06:35:16;;;;;;;21.40;12.27;;;-9.70;99.90;;;;;;5090138;28;20185;-91
2022/12/18 06:37:42;;;;;;;19.10;9.60;;;-9.70;99.90;;;;;;5093961;28;20510;-88
2022/12/18 06:40:10;;;;;;;18.00;10.50;;;-9.80;99.90;;;;;;5092939;28;20170;-90
2022/12/18 06:42:36;;;;;;;19.53;10.53;;;-9.70;99.90;;;;;;5091619;28;20698;-89
2022/12/18 06:45:02;;;;;;;25.90;11.27;;;-9.80;99.90;;;;;;5117106;28;20233;-89
2022/12/18 06:47:28;;;;;;;18.03;10.10;;;-9.80;99.90;;;;;;5118048;28;20212;-90
2022/12/18 06:49:54;;;;;;;18.80;10.67;;;-9.80;99.90;;;;;;5117636;28;20250;-90
2022/12/18 06:52:20;;;;;;;20.37;11.33;;;-9.70;99.90;;;;;;5089966;28;20627;-89
2022/12/18 06:54:46;;;;;;;25.00;12.10;;;-9.70;99.90;;;;;;5088728;28;20175;-89
2022/12/18 06:57:11;;;;;;;15.80;9.67;;;-9.70;99.90;;;;;;5097617;28;20172;-89
2022/12/18 06:59:39;;;;;;;20.03;10.23;;;-9.80;99.90;;;;;;5097289;28;20207;-89
2022/12/18 07:02:05;;;;;;;21.17;9.40;;;-9.80;99.90;;;;;;5097256;28;20172;-89
2022/12/18 07:04:31;;;;;;;21.00;10.13;;;-9.80;99.90;;;;;;5096230;28;20229;-89
2022/12/18 07:06:57;;;;;;;20.60;9.67;;;-9.90;99.90;;;;;;5096937;28;20304;-90
2022/12/18 07:09:25;;;;;;;19.47;9.73;;;-9.90;99.90;;;;;;5096950;28;20186;-90
2022/12/18 07:11:51;;;;;;;20.93;10.60;;;-9.90;99.90;;;;;;5100695;28;20332;-89
2022/12/18 07:14:16;;;;;;;16.43;9.60;;;-9.90;99.90;;;;;;5117321;28;20229;-89
2022/12/18 07:16:42;;;;;;;21.20;10.63;;;-10.00;99.90;;;;;;5079365;28;20181;-89
2022/12/18 07:19:08;;;;;;;19.27;10.17;;;-10.00;99.90;;;;;;5076277;28;20177;-89
2022/12/18 07:21:33;;;;;;;16.27;9.43;;;-9.90;99.90;;;;;;5084524;28;20176;-90
2022/12/18 07:23:59;;;;;;;22.87;10.10;;;-9.90;99.90;;;;;;5087878;28;20177;-88
2022/12/18 07:26:26;;;;;;;25.33;10.93;;;-9.90;99.90;;;;;;5086108;28;20200;-89
2022/12/18 07:28:57;;;;;;;21.10;10.70;;;-10.00;99.90;;;;;;5093260;28;20206;-89
2022/12/18 07:31:24;;;;;;;18.77;9.70;;;-10.00;99.90;;;;;;5090658;28;20165;-89
2022/12/18 07:33:50;;;;;;;17.30;10.30;;;-10.10;99.90;;;;;;5076274;28;20182;-89
2022/12/18 07:36:16;;;;;;;16.23;9.33;;;-10.10;99.90;;;;;;5076031;28;20272;-89
2022/12/18 07:38:42;;;;;;;17.43;9.67;;;-10.10;99.90;;;;;;5076484;28;20185;-89
2022/12/18 07:41:14;;;;;;;19.17;10.57;;;-10.20;99.90;;;;;;5076306;28;20371;-89
2022/12/18 07:43:41;;;;;;;19.37;9.37;;;-10.20;99.90;;;;;;5094146;28;20283;-89
2022/12/18 07:46:08;;;;;;;22.07;11.23;;;-10.30;99.90;;;;;;5089945;28;20267;-90
2022/12/18 07:48:33;;;;;;;23.13;10.77;;;-10.30;99.90;;;;;;5083580;28;20186;-89
2022/12/18 07:51:04;;;;;;;20.30;10.97;;;-10.20;99.90;;;;;;5082450;28;20173;-89
2022/12/18 07:53:31;;;;;;;18.20;9.40;;;-10.20;99.90;;;;;;5087509;28;20181;-89
2022/12/18 07:55:59;;;;;;;17.57;10.00;;;-10.10;99.90;;;;;;5084282;28;20248;-89
2022/12/18 07:58:25;;;;;;;22.63;11.63;;;-10.10;99.90;;;;;;5083296;28;20178;-89
2022/12/18 08:00:52;;;;;;;20.60;11.37;;;-10.00;99.90;;;;;;5077920;28;20503;-88
2022/12/18 08:03:18;;;;;;;17.37;10.47;;;-9.90;99.90;;;;;;5076044;28;20166;-90
2022/12/18 08:05:44;;;;;;;20.03;11.23;;;-9.90;99.90;;;;;;5075622;28;20216;-92
2022/12/18 08:08:10;;;;;;;22.83;12.20;;;-9.90;99.90;;;;;;5081291;28;20292;-91
2022/12/18 08:10:37;;;;;;;17.40;10.10;;;-9.80;99.90;;;;;;5088165;28;20184;-91
2022/12/18 08:13:03;;;;;;;22.50;11.50;;;-9.80;99.90;;;;;;5089518;28;20185;-91
2022/12/18 08:15:29;;;;;;;22.30;10.57;;;-9.80;99.90;;;;;;5092530;28;20181;-90
2022/12/18 08:17:58;;;;;;;21.27;11.30;;;-9.70;99.90;;;;;;5092995;28;20609;-91
2022/12/18 08:20:24;;;;;;;19.43;11.00;;;-9.70;99.90;;;;;;5080966;28;20510;-92
2022/12/18 08:22:50;;;;;;;19.73;11.10;;;-9.60;99.90;;;;;;5095854;28;20174;-92
2022/12/18 08:25:16;;;;;;;20.23;11.70;;;-9.60;99.90;;;;;;5095684;28;20612;-90
2022/12/18 08:27:42;;;;;;;20.20;10.20;;;-9.50;99.90;;;;;;5095523;28;20212;-92
2022/12/18 08:30:14;;;;;;;21.10;10.30;;;-9.40;99.90;;;;;;5095553;28;20316;-91
2022/12/18 08:32:40;;;;;;;17.70;10.97;;;-9.30;99.90;;;;;;5095698;28;20179;-90
2022/12/18 08:35:06;;;;;;;19.80;10.10;;;-9.30;99.90;;;;;;5095164;28;20178;-90
2022/12/18 08:37:32;;;;;;;20.07;9.90;;;-9.20;99.90;;;;;;5095528;28;20182;-89
2022/12/18 08:39:58;;;;;;;15.97;10.00;;;-9.10;99.90;;;;;;5082969;28;20172;-89
2022/12/18 08:45:08;;;;;;;18.10;9.83;;;-8.90;99.90;;;;;;5116718;28;20313;-89
2022/12/18 08:47:34;;;;;;;16.10;9.57;;;-8.80;99.90;;;;;;5115505;28;20543;-90
2022/12/18 08:50:00;;;;;;;14.83;8.80;;;-8.80;99.90;;;;;;5115141;28;20270;-89
2022/12/18 08:52:25;;;;;;;20.27;9.73;;;-8.70;99.90;;;;;;5115356;28;20187;-90
2022/12/18 08:54:51;;;;;;;19.80;10.70;;;-8.70;99.90;;;;;;5115146;28;20267;-90
2022/12/18 08:57:17;;;;;;;38.93;18.70;;;-8.70;99.90;;;;;;5115230;28;20238;-89
2022/12/18 08:59:42;;;;;;;42.13;19.13;;;-8.70;99.90;;;;;;5116293;28;20175;-89
2022/12/18 09:02:11;;;;;;;33.73;16.40;;;-8.70;99.90;;;;;;5115061;28;20175;-89
2022/12/18 09:04:36;;;;;;;29.23;14.80;;;-8.60;99.90;;;;;;5114880;28;20284;-89
2022/12/18 09:07:02;;;;;;;28.00;14.40;;;-8.60;99.90;;;;;;5114296;28;20220;-91
2022/12/18 09:09:28;;;;;;;24.70;12.77;;;-8.60;99.90;;;;;;5115284;28;20179;-91
2022/12/18 09:11:58;;;;;;;21.53;11.63;;;-8.50;99.90;;;;;;5115183;28;20281;-91
2022/12/18 09:14:25;;;;;;;39.53;20.13;;;-8.50;99.90;;;;;;5097769;28;20263;-92
2022/12/18 09:16:50;;;;;;;38.73;19.07;;;-8.40;99.90;;;;;;5085926;28;20180;-91
2022/12/18 09:19:22;;;;;;;23.57;13.33;;;-8.40;99.90;;;;;;5094380;28;20182;-91
2022/12/18 09:21:50;;;;;;;20.93;11.77;;;-8.30;99.90;;;;;;5094314;28;20179;-93
2022/12/18 09:24:16;;;;;;;23.03;11.40;;;-8.20;99.90;;;;;;5094567;28;20173;-92
2022/12/18 09:26:42;;;;;;;20.33;11.73;;;-8.10;99.90;;;;;;5094532;28;20641;-92
2022/12/18 09:29:09;;;;;;;25.80;12.20;;;-8.00;99.90;;;;;;5094690;28;20200;-91
2022/12/18 09:31:39;;;;;;;23.97;13.53;;;-7.90;99.90;;;;;;5094396;28;20207;-92
2022/12/18 09:34:05;;;;;;;27.40;13.23;;;-7.80;99.90;;;;;;5094291;28;20180;-91
2022/12/18 09:36:30;;;;;;;19.60;11.73;;;-7.70;99.90;;;;;;5093893;28;20183;-91
2022/12/18 09:38:56;;;;;;;25.60;12.93;;;-7.60;99.90;;;;;;5094406;28;20185;-91
2022/12/18 09:41:53;;;;;;;26.67;12.93;;;-7.50;99.90;;;;;;5094344;28;20259;-91
2022/12/18 09:44:43;;;;;;;24.50;13.23;;;-7.40;99.90;;;;;;5073818;28;20184;-90
2022/12/18 09:47:27;;;;;;;24.23;11.67;;;-7.30;99.90;;;;;;5074104;28;20236;-90
2022/12/18 09:50:00;;;;;;;27.47;12.80;;;-7.20;99.90;;;;;;5073479;28;20170;-89
2022/12/18 09:52:41;;;;;;;24.50;13.40;;;-7.10;99.90;;;;;;5075102;28;20166;-88
2022/12/18 09:55:27;;;;;;;27.07;12.87;;;-7.10;99.90;;;;;;5073773;28;20174;-88
2022/12/18 09:58:12;;;;;;;22.90;12.83;;;-7.00;99.90;;;;;;5074981;28;20185;-88
2022/12/18 10:00:37;;;;;;;21.03;11.67;;;-6.80;99.90;;;;;;5076099;28;20169;-87
2022/12/18 10:03:15;;;;;;;29.13;13.20;;;-6.80;99.90;;;;;;5087784;28;20169;-88
2022/12/18 10:06:13;;;;;;;24.07;12.00;;;-6.70;99.90;;;;;;5085756;28;20168;-87
2022/12/18 10:08:42;;;;;;;25.53;12.83;;;-6.60;99.90;;;;;;5075004;28;20193;-89
2022/12/18 10:11:34;;;;;;;24.27;12.50;;;-6.50;99.90;;;;;;5075379;28;20234;-87
2022/12/18 10:14:27;;;;;;;22.20;11.27;;;-6.30;99.90;;;;;;5099559;28;20687;-90
2022/12/18 10:17:15;;;;;;;24.37;11.57;;;-6.10;99.90;;;;;;5094931;28;20165;-88
2022/12/18 10:19:51;;;;;;;19.60;11.30;;;-5.90;99.90;;;;;;5098880;28;20273;-89
2022/12/18 10:22:55;;;;;;;25.10;12.53;;;-5.80;99.90;;;;;;5097893;28;20847;-89
2022/12/18 10:25:31;;;;;;;20.93;10.77;;;-5.70;99.90;;;;;;5047187;28;20183;-88
2022/12/18 10:28:04;;;;;;;22.47;13.00;;;-5.60;99.90;;;;;;5097725;28;20204;-89
2022/12/18 10:30:30;;;;;;;19.63;11.23;;;-5.50;99.90;;;;;;5086505;28;20165;-88
2022/12/18 10:33:01;;;;;;;21.77;11.37;;;-5.30;99.90;;;;;;5078072;28;20170;-87
2022/12/18 10:35:28;;;;;;;23.70;12.20;;;-5.20;99.90;;;;;;5076896;28;20258;-88
2022/12/18 10:38:30;;;;;;;22.07;11.70;;;-5.10;99.90;;;;;;5077266;28;20188;-87
2022/12/18 10:41:17;;;;;;;20.33;10.87;;;-5.10;99.90;;;;;;5083886;28;20605;-89
2022/12/18 10:43:43;;;;;;;19.83;12.43;;;-5.10;99.90;;;;;;5112690;28;20188;-89
2022/12/18 10:46:08;;;;;;;24.40;11.83;;;-5.00;99.90;;;;;;5117172;28;20671;-88
2022/12/18 10:48:41;;;;;;;21.43;11.90;;;-5.00;99.90;;;;;;5117671;28;20308;-89
2022/12/18 10:51:08;;;;;;;25.70;13.07;;;-5.00;99.90;;;;;;5117342;28;20618;-87
2022/12/18 10:53:36;;;;;;;24.27;11.97;;;-4.90;99.90;;;;;;5117294;28;20296;-89
2022/12/18 10:56:05;;;;;;;17.57;10.53;;;-4.80;99.90;;;;;;5116924;28;20171;-89
2022/12/18 10:58:36;;;;;;;16.50;9.47;;;-4.70;99.90;;;;;;5116956;28;20552;-91
2022/12/18 11:01:04;;;;;;;17.20;9.43;;;-4.70;99.90;;;;;;5117263;28;20186;-91
2022/12/18 11:03:37;;;;;;;16.30;8.73;;;-4.50;99.90;;;;;;5117785;28;20208;-91
2022/12/18 11:06:15;;;;;;;18.20;9.53;;;-4.30;99.90;;;;;;5118408;28;20200;-92
2022/12/18 11:08:42;;;;;;;14.20;8.10;;;-4.20;99.90;;;;;;5117597;28;20179;-91
2022/12/18 11:11:22;;;;;;;17.47;8.40;;;-4.10;99.90;;;;;;5117590;28;20168;-91
2022/12/18 11:14:33;;;;;;;17.83;9.27;;;-4.00;99.90;;;;;;5117136;28;20194;-92
2022/12/18 11:17:00;;;;;;;19.10;10.97;;;-3.90;99.90;;;;;;5110510;28;20256;-92
2022/12/18 11:19:35;;;;;;;18.93;10.40;;;-3.80;99.90;;;;;;5081232;28;20179;-92
2022/12/18 11:22:23;;;;;;;20.30;10.73;;;-3.70;99.90;;;;;;5079327;28;20225;-90
2022/12/18 11:25:06;;;;;;;23.30;11.97;;;-3.70;99.90;;;;;;5079382;28;20273;-90
2022/12/18 11:27:33;;;;;;;25.03;14.37;;;-3.70;99.90;;;;;;5079427;28;20208;-90
2022/12/18 11:30:25;;;;;;;25.07;14.33;;;-3.70;99.90;;;;;;5079036;28;20177;-88
2022/12/18 11:32:57;;;;;;;24.13;13.93;;;-3.70;99.90;;;;;;5074834;28;20666;-87
2022/12/18 11:35:38;;;;;;;25.53;14.37;;;-3.60;99.90;;;;;;5079238;28;20201;-88
2022/12/18 11:38:29;;;;;;;25.33;14.17;;;-3.70;99.90;;;;;;5079421;28;20258;-88
2022/12/18 11:44:35;;;;;;;17.87;9.93;;;-3.70;99.90;;;;;;4976226;28;20259;-87
2022/12/18 11:47:12;;;;;;;17.47;9.93;;;-3.60;99.90;;;;;;5058973;28;20208;-88
2022/12/18 11:49:40;;;;;;;25.07;12.03;;;-3.50;99.90;;;;;;5059101;28;20170;-88
2022/12/18 11:52:21;;;;;;;18.20;9.93;;;-3.50;99.90;;;;;;5076578;28;20173;-86
2022/12/18 11:54:46;;;;;;;19.37;8.30;;;-3.40;99.90;;;;;;5076648;28;20165;-87
2022/12/18 11:57:21;;;;;;;12.33;7.20;;;-3.40;99.90;;;;;;5059143;28;20235;-88
2022/12/18 12:00:09;;;;;;;18.33;9.50;;;-3.30;99.90;;;;;;5059393;28;20188;-87
2022/12/18 12:02:53;;;;;;;19.13;9.20;;;-3.20;99.90;;;;;;5076808;28;20175;-88
2022/12/18 12:05:51;;;;;;;15.60;8.10;;;-3.10;99.90;;;;;;5080850;28;20178;-86
2022/12/18 12:08:43;;;;;;;12.27;6.50;;;-3.00;99.90;;;;;;5078363;28;20257;-86
2022/12/18 12:11:31;;;;;;;18.53;8.90;;;-2.80;99.90;;;;;;5096644;28;20226;-86
2022/12/18 12:14:03;;;;;;;21.57;9.80;;;-2.60;99.90;;;;;;5068586;28;20185;-85
2022/12/18 12:16:41;;;;;;;20.53;10.77;;;-2.60;99.90;;;;;;5087167;28;20230;-85
2022/12/18 12:19:16;;;;;;;29.57;14.07;;;-2.50;99.90;;;;;;5077445;28;20165;-85
2022/12/18 12:22:01;;;;;;;28.13;13.17;;;-2.50;99.90;;;;;;5074642;28;20575;-86
2022/12/18 12:24:45;;;;;;;20.50;11.30;;;-2.50;99.90;;;;;;5071702;28;20256;-87
2022/12/18 12:27:39;;;;;;;22.27;12.37;;;-2.40;99.90;;;;;;5057989;28;20209;-87
2022/12/18 12:30:29;;;;;;;19.10;11.07;;;-2.40;99.90;;;;;;5077905;28;20502;-88
2022/12/18 12:32:59;;;;;;;20.60;11.53;;;-2.30;99.90;;;;;;5067670;28;20252;-88
2022/12/18 12:35:44;;;;;;;21.50;11.70;;;-2.30;99.90;;;;;;5090398;28;20164;-87
2022/12/18 12:38:28;;;;;;;23.20;11.40;;;-2.20;99.90;;;;;;5059275;28;20167;-88
2022/12/18 12:41:02;;;;;;;21.73;10.60;;;-2.20;99.90;;;;;;5090620;28;20183;-87
2022/12/18 12:43:35;;;;;;;19.90;10.97;;;-2.10;99.90;;;;;;5070026;28;20178;-87
2022/12/18 12:46:07;;;;;;;22.60;10.63;;;-2.00;99.90;;;;;;5077461;28;20692;-88
2022/12/18 12:48:52;;;;;;;14.33;8.47;;;-2.00;99.90;;;;;;5077753;28;20176;-87
2022/12/18 12:51:26;;;;;;;15.77;6.83;;;-1.80;99.90;;;;;;5077704;28;20212;-88
2022/12/18 12:54:04;;;;;;;11.23;6.20;;;-1.60;99.90;;;;;;5077406;28;20198;-91
2022/12/18 12:57:00;;;;;;;14.23;7.17;;;-1.50;99.90;;;;;;5077902;28;20178;-90